sensor_id;sensor_type;location;lat;lon;timestamp;P1;durP1;ratioP1;P2;durP2;ratioP2
23101;SDS011;11720;51.214;22.574;2023-06-04T00:00:47;10.30;;;5.20;;
23101;SDS011;11720;51.214;22.574;2023-06-04T00:03:12;9.98;;;4.13;;
23101;SDS011;11720;51.214;22.574;2023-06-04T00:05:38;6.85;;;3.50;;
23101;SDS011;11720;51.214;22.574;2023-06-04T00:08:04;14.75;;;5.47;;
23101;SDS011;11720;51.214;22.574;2023-06-04T00:10:30;9.98;;;4.65;;
23101;SDS011;11720;51.214;22.574;2023-06-04T00:12:56;9.38;;;3.88;;
23101;SDS011;11720;51.214;22.574;2023-06-04T00:15:22;18.30;;;4.75;;
23101;SDS011;11720;51.214;22.574;2023-06-04T00:17:47;11.48;;;4.22;;
23101;SDS011;11720;51.214;22.574;2023-06-04T00:20:13;8.40;;;4.20;;
23101;SDS011;11720;51.214;22.574;2023-06-04T00:22:39;12.73;;;4.35;;
23101;SDS011;11720;51.214;22.574;2023-06-04T00:25:06;6.95;;;3.40;;
23101;SDS011;11720;51.214;22.574;2023-06-04T00:27:35;6.97;;;3.88;;
23101;SDS011;11720;51.214;22.574;2023-06-04T00:30:01;10.43;;;4.43;;
23101;SDS011;11720;51.214;22.574;2023-06-04T00:32:28;5.45;;;3.60;;
23101;SDS011;11720;51.214;22.574;2023-06-04T00:34:54;7.68;;;4.22;;
23101;SDS011;11720;51.214;22.574;2023-06-04T00:37:22;9.05;;;4.72;;
23101;SDS011;11720;51.214;22.574;2023-06-04T00:39:48;11.68;;;4.05;;
23101;SDS011;11720;51.214;22.574;2023-06-04T00:42:14;7.90;;;4.32;;
23101;SDS011;11720;51.214;22.574;2023-06-04T00:44:40;12.15;;;4.25;;
23101;SDS011;11720;51.214;22.574;2023-06-04T00:47:10;11.38;;;4.60;;
23101;SDS011;11720;51.214;22.574;2023-06-04T00:49:43;10.98;;;3.67;;
23101;SDS011;11720;51.214;22.574;2023-06-04T00:52:10;11.30;;;4.23;;
23101;SDS011;11720;51.214;22.574;2023-06-04T00:54:37;10.57;;;4.37;;
23101;SDS011;11720;51.214;22.574;2023-06-04T00:57:04;6.63;;;4.70;;
23101;SDS011;11720;51.214;22.574;2023-06-04T00:59:30;8.75;;;4.40;;
23101;SDS011;11720;51.214;22.574;2023-06-04T01:02:14;7.68;;;4.15;;
23101;SDS011;11720;51.214;22.574;2023-06-04T01:07:33;9.63;;;4.70;;
23101;SDS011;11720;51.214;22.574;2023-06-04T01:10:00;11.23;;;3.80;;
23101;SDS011;11720;51.214;22.574;2023-06-04T01:12:27;9.50;;;4.20;;
23101;SDS011;11720;51.214;22.574;2023-06-04T01:14:52;10.07;;;4.60;;
23101;SDS011;11720;51.214;22.574;2023-06-04T01:17:23;10.33;;;4.97;;
23101;SDS011;11720;51.214;22.574;2023-06-04T01:19:57;6.68;;;3.83;;
23101;SDS011;11720;51.214;22.574;2023-06-04T01:28:06;12.20;;;4.13;;
23101;SDS011;11720;51.214;22.574;2023-06-04T01:30:37;7.23;;;4.33;;
23101;SDS011;11720;51.214;22.574;2023-06-04T01:33:15;9.87;;;4.50;;
23101;SDS011;11720;51.214;22.574;2023-06-04T01:35:42;10.97;;;5.00;;
23101;SDS011;11720;51.214;22.574;2023-06-04T01:38:08;9.20;;;3.77;;
23101;SDS011;11720;51.214;22.574;2023-06-04T01:40:35;9.53;;;4.20;;
23101;SDS011;11720;51.214;22.574;2023-06-04T01:43:01;10.50;;;3.90;;
23101;SDS011;11720;51.214;22.574;2023-06-04T01:45:27;7.37;;;3.87;;
23101;SDS011;11720;51.214;22.574;2023-06-04T01:47:53;7.33;;;3.77;;
23101;SDS011;11720;51.214;22.574;2023-06-04T01:50:20;6.73;;;3.90;;
23101;SDS011;11720;51.214;22.574;2023-06-04T01:52:46;7.13;;;4.30;;
23101;SDS011;11720;51.214;22.574;2023-06-04T01:55:12;8.90;;;4.13;;
23101;SDS011;11720;51.214;22.574;2023-06-04T01:57:40;8.43;;;4.30;;
23101;SDS011;11720;51.214;22.574;2023-06-04T02:00:07;6.33;;;3.53;;
23101;SDS011;11720;51.214;22.574;2023-06-04T02:02:35;8.27;;;3.70;;
23101;SDS011;11720;51.214;22.574;2023-06-04T02:05:02;6.33;;;3.20;;
23101;SDS011;11720;51.214;22.574;2023-06-04T02:07:34;11.83;;;3.90;;
23101;SDS011;11720;51.214;22.574;2023-06-04T02:10:03;4.90;;;3.63;;
23101;SDS011;11720;51.214;22.574;2023-06-04T02:12:52;9.63;;;4.27;;
23101;SDS011;11720;51.214;22.574;2023-06-04T02:15:21;7.40;;;4.37;;
23101;SDS011;11720;51.214;22.574;2023-06-04T02:17:48;8.50;;;4.43;;
23101;SDS011;11720;51.214;22.574;2023-06-04T02:20:15;6.47;;;3.77;;
23101;SDS011;11720;51.214;22.574;2023-06-04T02:22:41;7.63;;;3.77;;
23101;SDS011;11720;51.214;22.574;2023-06-04T02:25:08;12.70;;;4.30;;
23101;SDS011;11720;51.214;22.574;2023-06-04T02:27:36;7.53;;;4.10;;
23101;SDS011;11720;51.214;22.574;2023-06-04T02:30:03;12.97;;;3.90;;
23101;SDS011;11720;51.214;22.574;2023-06-04T02:32:31;9.40;;;4.70;;
23101;SDS011;11720;51.214;22.574;2023-06-04T02:34:58;11.30;;;3.93;;
23101;SDS011;11720;51.214;22.574;2023-06-04T02:37:24;11.10;;;4.43;;
23101;SDS011;11720;51.214;22.574;2023-06-04T02:39:50;7.83;;;3.97;;
23101;SDS011;11720;51.214;22.574;2023-06-04T02:42:15;8.53;;;3.97;;
23101;SDS011;11720;51.214;22.574;2023-06-04T02:44:41;6.87;;;4.30;;
23101;SDS011;11720;51.214;22.574;2023-06-04T02:47:07;11.13;;;4.37;;
23101;SDS011;11720;51.214;22.574;2023-06-04T02:49:33;7.37;;;3.63;;
23101;SDS011;11720;51.214;22.574;2023-06-04T02:51:58;7.77;;;3.70;;
23101;SDS011;11720;51.214;22.574;2023-06-04T02:54:24;9.03;;;4.13;;
23101;SDS011;11720;51.214;22.574;2023-06-04T02:56:50;6.43;;;3.93;;
23101;SDS011;11720;51.214;22.574;2023-06-04T02:59:16;7.17;;;3.60;;
23101;SDS011;11720;51.214;22.574;2023-06-04T03:01:43;8.47;;;3.87;;
23101;SDS011;11720;51.214;22.574;2023-06-04T03:04:08;10.33;;;4.33;;
23101;SDS011;11720;51.214;22.574;2023-06-04T03:06:35;10.33;;;4.23;;
23101;SDS011;11720;51.214;22.574;2023-06-04T03:09:04;13.37;;;4.17;;
23101;SDS011;11720;51.214;22.574;2023-06-04T03:11:32;7.67;;;4.20;;
23101;SDS011;11720;51.214;22.574;2023-06-04T03:13:57;9.83;;;3.57;;
23101;SDS011;11720;51.214;22.574;2023-06-04T03:16:23;10.07;;;4.40;;
23101;SDS011;11720;51.214;22.574;2023-06-04T03:18:49;8.77;;;4.03;;
23101;SDS011;11720;51.214;22.574;2023-06-04T03:21:15;6.40;;;3.30;;
23101;SDS011;11720;51.214;22.574;2023-06-04T03:23:40;10.17;;;4.47;;
23101;SDS011;11720;51.214;22.574;2023-06-04T03:26:06;8.03;;;4.70;;
23101;SDS011;11720;51.214;22.574;2023-06-04T03:28:32;10.87;;;4.77;;
23101;SDS011;11720;51.214;22.574;2023-06-04T03:30:59;7.40;;;3.47;;
23101;SDS011;11720;51.214;22.574;2023-06-04T03:33:25;6.37;;;3.50;;
23101;SDS011;11720;51.214;22.574;2023-06-04T03:35:51;8.50;;;3.90;;
23101;SDS011;11720;51.214;22.574;2023-06-04T03:38:17;6.00;;;3.97;;
23101;SDS011;11720;51.214;22.574;2023-06-04T03:40:43;6.23;;;4.03;;
23101;SDS011;11720;51.214;22.574;2023-06-04T03:43:10;11.03;;;3.83;;
23101;SDS011;11720;51.214;22.574;2023-06-04T03:45:35;8.10;;;3.37;;
23101;SDS011;11720;51.214;22.574;2023-06-04T03:48:01;4.27;;;3.17;;
23101;SDS011;11720;51.214;22.574;2023-06-04T03:50:27;7.90;;;3.42;;
23101;SDS011;11720;51.214;22.574;2023-06-04T03:52:52;6.90;;;3.42;;
23101;SDS011;11720;51.214;22.574;2023-06-04T03:55:18;4.50;;;3.17;;
23101;SDS011;11720;51.214;22.574;2023-06-04T03:57:44;5.07;;;3.37;;
23101;SDS011;11720;51.214;22.574;2023-06-04T04:00:10;5.28;;;3.35;;
23101;SDS011;11720;51.214;22.574;2023-06-04T04:02:41;4.20;;;3.20;;
23101;SDS011;11720;51.214;22.574;2023-06-04T04:05:07;5.28;;;2.78;;
23101;SDS011;11720;51.214;22.574;2023-06-04T04:07:34;6.00;;;3.13;;
23101;SDS011;11720;51.214;22.574;2023-06-04T04:10:00;7.97;;;3.15;;
23101;SDS011;11720;51.214;22.574;2023-06-04T04:12:25;7.75;;;3.22;;
23101;SDS011;11720;51.214;22.574;2023-06-04T04:14:51;5.15;;;2.92;;
23101;SDS011;11720;51.214;22.574;2023-06-04T04:17:17;3.70;;;2.33;;
23101;SDS011;11720;51.214;22.574;2023-06-04T04:19:43;4.55;;;2.38;;
23101;SDS011;11720;51.214;22.574;2023-06-04T04:22:10;8.35;;;2.50;;
23101;SDS011;11720;51.214;22.574;2023-06-04T04:24:35;5.82;;;1.83;;
23101;SDS011;11720;51.214;22.574;2023-06-04T04:27:03;5.40;;;1.85;;
23101;SDS011;11720;51.214;22.574;2023-06-04T04:29:30;5.20;;;1.98;;
23101;SDS011;11720;51.214;22.574;2023-06-04T04:31:58;2.85;;;1.88;;
23101;SDS011;11720;51.214;22.574;2023-06-04T04:34:35;3.28;;;1.70;;
23101;SDS011;11720;51.214;22.574;2023-06-04T04:37:02;3.00;;;1.60;;
23101;SDS011;11720;51.214;22.574;2023-06-04T04:39:28;2.20;;;1.60;;
23101;SDS011;11720;51.214;22.574;2023-06-04T04:41:54;4.95;;;1.77;;
23101;SDS011;11720;51.214;22.574;2023-06-04T04:44:20;4.97;;;1.40;;
23101;SDS011;11720;51.214;22.574;2023-06-04T04:46:47;1.75;;;1.30;;
23101;SDS011;11720;51.214;22.574;2023-06-04T04:49:13;2.60;;;1.70;;
23101;SDS011;11720;51.214;22.574;2023-06-04T04:51:39;1.65;;;1.30;;
23101;SDS011;11720;51.214;22.574;2023-06-04T04:54:05;4.88;;;1.40;;
23101;SDS011;11720;51.214;22.574;2023-06-04T04:56:32;1.90;;;1.30;;
23101;SDS011;11720;51.214;22.574;2023-06-04T04:58:59;4.50;;;2.13;;
23101;SDS011;11720;51.214;22.574;2023-06-04T05:01:25;2.17;;;1.40;;
23101;SDS011;11720;51.214;22.574;2023-06-04T05:03:50;3.65;;;1.60;;
23101;SDS011;11720;51.214;22.574;2023-06-04T05:06:16;3.70;;;1.70;;
23101;SDS011;11720;51.214;22.574;2023-06-04T05:08:42;2.47;;;1.67;;
23101;SDS011;11720;51.214;22.574;2023-06-04T05:11:08;2.03;;;1.30;;
23101;SDS011;11720;51.214;22.574;2023-06-04T05:13:34;3.33;;;1.80;;
23101;SDS011;11720;51.214;22.574;2023-06-04T05:16:00;3.42;;;1.65;;
23101;SDS011;11720;51.214;22.574;2023-06-04T05:18:31;3.83;;;1.48;;
23101;SDS011;11720;51.214;22.574;2023-06-04T05:21:05;3.33;;;1.83;;
23101;SDS011;11720;51.214;22.574;2023-06-04T05:23:32;1.88;;;1.52;;
23101;SDS011;11720;51.214;22.574;2023-06-04T05:25:59;4.22;;;1.42;;
23101;SDS011;11720;51.214;22.574;2023-06-04T05:28:26;1.58;;;1.10;;
23101;SDS011;11720;51.214;22.574;2023-06-04T05:30:53;1.70;;;1.20;;
23101;SDS011;11720;51.214;22.574;2023-06-04T05:33:24;3.33;;;1.42;;
23101;SDS011;11720;51.214;22.574;2023-06-04T05:35:50;2.92;;;1.48;;
23101;SDS011;11720;51.214;22.574;2023-06-04T05:38:24;2.70;;;1.60;;
23101;SDS011;11720;51.214;22.574;2023-06-04T05:40:55;1.95;;;1.40;;
23101;SDS011;11720;51.214;22.574;2023-06-04T05:43:21;1.63;;;1.35;;
23101;SDS011;11720;51.214;22.574;2023-06-04T05:45:47;2.13;;;1.40;;
23101;SDS011;11720;51.214;22.574;2023-06-04T05:48:13;1.58;;;1.48;;
23101;SDS011;11720;51.214;22.574;2023-06-04T05:50:39;1.95;;;1.38;;
23101;SDS011;11720;51.214;22.574;2023-06-04T05:53:05;4.57;;;1.52;;
23101;SDS011;11720;51.214;22.574;2023-06-04T05:55:30;2.00;;;1.13;;
23101;SDS011;11720;51.214;22.574;2023-06-04T05:57:56;2.53;;;1.10;;
23101;SDS011;11720;51.214;22.574;2023-06-04T06:00:22;1.27;;;1.10;;
23101;SDS011;11720;51.214;22.574;2023-06-04T06:02:51;1.85;;;1.38;;
23101;SDS011;11720;51.214;22.574;2023-06-04T06:05:20;1.10;;;1.00;;
23101;SDS011;11720;51.214;22.574;2023-06-04T06:07:46;1.33;;;1.08;;
23101;SDS011;11720;51.214;22.574;2023-06-04T06:10:13;1.73;;;1.13;;
23101;SDS011;11720;51.214;22.574;2023-06-04T06:12:40;6.25;;;1.45;;
23101;SDS011;11720;51.214;22.574;2023-06-04T06:15:06;2.65;;;1.13;;
23101;SDS011;11720;51.214;22.574;2023-06-04T06:17:32;3.05;;;1.00;;
23101;SDS011;11720;51.214;22.574;2023-06-04T06:19:59;1.48;;;1.17;;
23101;SDS011;11720;51.214;22.574;2023-06-04T06:22:24;1.23;;;1.13;;
23101;SDS011;11720;51.214;22.574;2023-06-04T06:24:50;3.30;;;1.10;;
23101;SDS011;11720;51.214;22.574;2023-06-04T06:27:16;5.07;;;1.08;;
23101;SDS011;11720;51.214;22.574;2023-06-04T06:29:42;8.45;;;1.30;;
23101;SDS011;11720;51.214;22.574;2023-06-04T06:32:09;4.65;;;1.70;;
23101;SDS011;11720;51.214;22.574;2023-06-04T06:34:36;1.70;;;1.00;;
23101;SDS011;11720;51.214;22.574;2023-06-04T06:37:06;1.13;;;1.02;;
23101;SDS011;11720;51.214;22.574;2023-06-04T06:39:32;1.70;;;1.10;;
23101;SDS011;11720;51.214;22.574;2023-06-04T06:41:57;1.50;;;1.08;;
23101;SDS011;11720;51.214;22.574;2023-06-04T06:44:23;1.55;;;1.23;;
23101;SDS011;11720;51.214;22.574;2023-06-04T06:46:49;7.07;;;2.25;;
23101;SDS011;11720;51.214;22.574;2023-06-04T06:49:15;3.13;;;1.25;;
23101;SDS011;11720;51.214;22.574;2023-06-04T06:51:41;1.85;;;1.10;;
23101;SDS011;11720;51.214;22.574;2023-06-04T06:54:09;2.00;;;1.10;;
23101;SDS011;11720;51.214;22.574;2023-06-04T06:56:35;0.90;;;0.90;;
23101;SDS011;11720;51.214;22.574;2023-06-04T06:59:01;1.48;;;1.13;;
23101;SDS011;11720;51.214;22.574;2023-06-04T07:01:27;1.52;;;1.13;;
23101;SDS011;11720;51.214;22.574;2023-06-04T07:03:52;1.70;;;0.93;;
23101;SDS011;11720;51.214;22.574;2023-06-04T07:06:18;2.15;;;1.38;;
23101;SDS011;11720;51.214;22.574;2023-06-04T07:08:44;2.53;;;1.20;;
23101;SDS011;11720;51.214;22.574;2023-06-04T07:11:10;0.93;;;0.90;;
23101;SDS011;11720;51.214;22.574;2023-06-04T07:13:39;1.60;;;0.95;;
23101;SDS011;11720;51.214;22.574;2023-06-04T07:16:05;1.05;;;0.70;;
23101;SDS011;11720;51.214;22.574;2023-06-04T07:18:30;1.58;;;1.13;;
23101;SDS011;11720;51.214;22.574;2023-06-04T07:20:57;3.10;;;0.95;;
23101;SDS011;11720;51.214;22.574;2023-06-04T07:23:23;3.15;;;1.42;;
23101;SDS011;11720;51.214;22.574;2023-06-04T07:25:49;2.67;;;1.40;;
23101;SDS011;11720;51.214;22.574;2023-06-04T07:28:15;1.30;;;0.80;;
23101;SDS011;11720;51.214;22.574;2023-06-04T07:30:40;3.22;;;1.08;;
23101;SDS011;11720;51.214;22.574;2023-06-04T07:33:06;1.80;;;1.00;;
23101;SDS011;11720;51.214;22.574;2023-06-04T07:35:32;1.63;;;0.90;;
23101;SDS011;11720;51.214;22.574;2023-06-04T07:37:57;1.25;;;0.80;;
23101;SDS011;11720;51.214;22.574;2023-06-04T07:40:23;1.50;;;1.10;;
23101;SDS011;11720;51.214;22.574;2023-06-04T07:42:49;7.45;;;0.90;;
23101;SDS011;11720;51.214;22.574;2023-06-04T07:45:15;1.30;;;0.90;;
23101;SDS011;11720;51.214;22.574;2023-06-04T07:47:41;1.08;;;0.80;;
23101;SDS011;11720;51.214;22.574;2023-06-04T07:50:07;0.88;;;0.70;;
23101;SDS011;11720;51.214;22.574;2023-06-04T07:52:33;2.38;;;0.95;;
23101;SDS011;11720;51.214;22.574;2023-06-04T07:55:00;1.08;;;0.82;;
23101;SDS011;11720;51.214;22.574;2023-06-04T07:57:26;0.93;;;0.73;;
23101;SDS011;11720;51.214;22.574;2023-06-04T07:59:52;1.60;;;1.17;;
23101;SDS011;11720;51.214;22.574;2023-06-04T08:02:18;0.90;;;0.90;;
23101;SDS011;11720;51.214;22.574;2023-06-04T08:04:44;6.00;;;1.45;;
23101;SDS011;11720;51.214;22.574;2023-06-04T08:07:11;1.70;;;0.93;;
23101;SDS011;11720;51.214;22.574;2023-06-04T08:09:37;1.73;;;1.05;;
23101;SDS011;11720;51.214;22.574;2023-06-04T08:12:02;1.23;;;0.63;;
23101;SDS011;11720;51.214;22.574;2023-06-04T08:14:28;1.77;;;1.10;;
23101;SDS011;11720;51.214;22.574;2023-06-04T08:16:54;1.20;;;0.68;;
23101;SDS011;11720;51.214;22.574;2023-06-04T08:19:20;2.00;;;0.70;;
23101;SDS011;11720;51.214;22.574;2023-06-04T08:21:45;1.85;;;0.80;;
23101;SDS011;11720;51.214;22.574;2023-06-04T08:24:12;2.28;;;1.05;;
23101;SDS011;11720;51.214;22.574;2023-06-04T08:26:38;1.17;;;0.73;;
23101;SDS011;11720;51.214;22.574;2023-06-04T08:29:04;1.77;;;0.80;;
23101;SDS011;11720;51.214;22.574;2023-06-04T08:31:30;4.63;;;1.40;;
23101;SDS011;11720;51.214;22.574;2023-06-04T08:33:56;1.30;;;1.13;;
23101;SDS011;11720;51.214;22.574;2023-06-04T08:36:22;1.85;;;0.68;;
23101;SDS011;11720;51.214;22.574;2023-06-04T08:38:47;2.90;;;0.98;;
23101;SDS011;11720;51.214;22.574;2023-06-04T08:41:20;2.03;;;0.80;;
23101;SDS011;11720;51.214;22.574;2023-06-04T08:43:58;1.98;;;0.77;;
23101;SDS011;11720;51.214;22.574;2023-06-04T08:46:26;0.60;;;0.47;;
23101;SDS011;11720;51.214;22.574;2023-06-04T08:48:58;1.13;;;0.70;;
23101;SDS011;11720;51.214;22.574;2023-06-04T08:51:27;3.13;;;0.70;;
23101;SDS011;11720;51.214;22.574;2023-06-04T08:53:58;1.95;;;0.95;;
23101;SDS011;11720;51.214;22.574;2023-06-04T08:56:24;1.17;;;0.75;;
23101;SDS011;11720;51.214;22.574;2023-06-04T08:58:51;0.82;;;0.70;;
23101;SDS011;11720;51.214;22.574;2023-06-04T09:01:18;1.50;;;0.80;;
23101;SDS011;11720;51.214;22.574;2023-06-04T09:03:44;0.70;;;0.70;;
23101;SDS011;11720;51.214;22.574;2023-06-04T09:06:10;5.72;;;0.70;;
23101;SDS011;11720;51.214;22.574;2023-06-04T09:08:37;1.27;;;0.88;;
23101;SDS011;11720;51.214;22.574;2023-06-04T09:11:08;0.95;;;0.70;;
23101;SDS011;11720;51.214;22.574;2023-06-04T09:13:36;1.25;;;0.70;;
23101;SDS011;11720;51.214;22.574;2023-06-04T09:16:04;5.20;;;1.08;;
23101;SDS011;11720;51.214;22.574;2023-06-04T09:18:32;2.45;;;0.70;;
23101;SDS011;11720;51.214;22.574;2023-06-04T09:21:05;1.23;;;0.70;;
23101;SDS011;11720;51.214;22.574;2023-06-04T09:23:36;1.33;;;0.60;;
23101;SDS011;11720;51.214;22.574;2023-06-04T09:26:12;1.52;;;0.88;;
23101;SDS011;11720;51.214;22.574;2023-06-04T09:28:42;3.30;;;0.82;;
23101;SDS011;11720;51.214;22.574;2023-06-04T09:31:09;1.25;;;0.80;;
23101;SDS011;11720;51.214;22.574;2023-06-04T09:33:44;4.13;;;0.90;;
23101;SDS011;11720;51.214;22.574;2023-06-04T09:36:11;3.03;;;0.80;;
23101;SDS011;11720;51.214;22.574;2023-06-04T09:38:37;3.10;;;0.85;;
23101;SDS011;11720;51.214;22.574;2023-06-04T09:41:04;0.60;;;0.50;;
23101;SDS011;11720;51.214;22.574;2023-06-04T09:43:30;7.80;;;1.00;;
23101;SDS011;11720;51.214;22.574;2023-06-04T09:46:08;1.95;;;0.70;;
23101;SDS011;11720;51.214;22.574;2023-06-04T09:48:38;1.02;;;0.70;;
23101;SDS011;11720;51.214;22.574;2023-06-04T09:51:14;1.65;;;1.00;;
23101;SDS011;11720;51.214;22.574;2023-06-04T09:53:52;1.58;;;0.93;;
23101;SDS011;11720;51.214;22.574;2023-06-04T09:56:20;1.45;;;0.70;;
23101;SDS011;11720;51.214;22.574;2023-06-04T09:58:46;0.93;;;0.60;;
23101;SDS011;11720;51.214;22.574;2023-06-04T10:01:18;0.73;;;0.70;;
23101;SDS011;11720;51.214;22.574;2023-06-04T10:03:46;1.10;;;0.70;;
23101;SDS011;11720;51.214;22.574;2023-06-04T10:06:15;1.45;;;1.02;;
23101;SDS011;11720;51.214;22.574;2023-06-04T10:08:42;1.88;;;1.25;;
23101;SDS011;11720;51.214;22.574;2023-06-04T10:11:10;3.78;;;0.65;;
23101;SDS011;11720;51.214;22.574;2023-06-04T10:13:39;0.88;;;0.77;;
23101;SDS011;11720;51.214;22.574;2023-06-04T10:16:12;1.75;;;0.60;;
23101;SDS011;11720;51.214;22.574;2023-06-04T10:18:38;1.75;;;1.27;;
23101;SDS011;11720;51.214;22.574;2023-06-04T10:21:04;0.95;;;0.82;;
23101;SDS011;11720;51.214;22.574;2023-06-04T10:23:33;1.80;;;1.25;;
23101;SDS011;11720;51.214;22.574;2023-06-04T10:25:59;1.35;;;1.17;;
23101;SDS011;11720;51.214;22.574;2023-06-04T10:28:26;2.58;;;1.30;;
23101;SDS011;11720;51.214;22.574;2023-06-04T10:30:51;1.17;;;0.90;;
23101;SDS011;11720;51.214;22.574;2023-06-04T10:33:18;4.45;;;1.65;;
23101;SDS011;11720;51.214;22.574;2023-06-04T10:35:50;2.67;;;1.55;;
23101;SDS011;11720;51.214;22.574;2023-06-04T10:38:20;2.25;;;0.70;;
23101;SDS011;11720;51.214;22.574;2023-06-04T10:40:47;1.17;;;0.85;;
23101;SDS011;11720;51.214;22.574;2023-06-04T10:43:13;4.10;;;1.15;;
23101;SDS011;11720;51.214;22.574;2023-06-04T10:45:43;1.52;;;1.15;;
23101;SDS011;11720;51.214;22.574;2023-06-04T10:48:09;0.90;;;0.60;;
23101;SDS011;11720;51.214;22.574;2023-06-04T10:50:48;0.93;;;0.50;;
23101;SDS011;11720;51.214;22.574;2023-06-04T10:53:15;1.58;;;0.70;;
23101;SDS011;11720;51.214;22.574;2023-06-04T10:55:45;2.08;;;1.20;;
23101;SDS011;11720;51.214;22.574;2023-06-04T10:58:12;1.52;;;0.75;;
23101;SDS011;11720;51.214;22.574;2023-06-04T11:00:38;1.45;;;0.80;;
23101;SDS011;11720;51.214;22.574;2023-06-04T11:03:08;1.27;;;0.85;;
23101;SDS011;11720;51.214;22.574;2023-06-04T11:05:42;0.98;;;0.60;;
23101;SDS011;11720;51.214;22.574;2023-06-04T11:08:09;1.48;;;0.68;;
23101;SDS011;11720;51.214;22.574;2023-06-04T11:10:45;1.27;;;0.75;;
23101;SDS011;11720;51.214;22.574;2023-06-04T11:13:11;1.20;;;0.80;;
23101;SDS011;11720;51.214;22.574;2023-06-04T11:15:41;1.13;;;0.80;;
23101;SDS011;11720;51.214;22.574;2023-06-04T11:18:08;1.55;;;0.90;;
23101;SDS011;11720;51.214;22.574;2023-06-04T11:20:38;0.95;;;0.50;;
23101;SDS011;11720;51.214;22.574;2023-06-04T11:23:03;0.82;;;0.63;;
23101;SDS011;11720;51.214;22.574;2023-06-04T11:25:31;1.65;;;0.70;;
23101;SDS011;11720;51.214;22.574;2023-06-04T11:27:58;2.10;;;0.65;;
23101;SDS011;11720;51.214;22.574;2023-06-04T11:30:26;1.20;;;0.60;;
23101;SDS011;11720;51.214;22.574;2023-06-04T11:33:05;3.88;;;0.77;;
23101;SDS011;11720;51.214;22.574;2023-06-04T11:35:31;0.88;;;0.68;;
23101;SDS011;11720;51.214;22.574;2023-06-04T11:38:05;2.25;;;0.70;;
23101;SDS011;11720;51.214;22.574;2023-06-04T11:40:31;1.98;;;0.70;;
23101;SDS011;11720;51.214;22.574;2023-06-04T11:42:57;0.52;;;0.52;;
23101;SDS011;11720;51.214;22.574;2023-06-04T11:45:22;1.30;;;0.70;;
23101;SDS011;11720;51.214;22.574;2023-06-04T11:47:49;1.15;;;0.70;;
23101;SDS011;11720;51.214;22.574;2023-06-04T11:50:17;2.35;;;0.73;;
23101;SDS011;11720;51.214;22.574;2023-06-04T11:52:42;0.68;;;0.52;;
23101;SDS011;11720;51.214;22.574;2023-06-04T11:55:09;0.52;;;0.52;;
23101;SDS011;11720;51.214;22.574;2023-06-04T11:57:36;1.27;;;0.63;;
23101;SDS011;11720;51.214;22.574;2023-06-04T12:00:05;2.30;;;0.73;;
23101;SDS011;11720;51.214;22.574;2023-06-04T12:02:38;2.75;;;0.90;;
23101;SDS011;11720;51.214;22.574;2023-06-04T12:05:15;1.65;;;0.70;;
23101;SDS011;11720;51.214;22.574;2023-06-04T12:07:45;0.82;;;0.70;;
23101;SDS011;11720;51.214;22.574;2023-06-04T12:10:12;1.13;;;0.82;;
23101;SDS011;11720;51.214;22.574;2023-06-04T12:12:38;1.15;;;0.50;;
23101;SDS011;11720;51.214;22.574;2023-06-04T12:15:05;0.93;;;0.90;;
23101;SDS011;11720;51.214;22.574;2023-06-04T12:17:32;1.40;;;0.77;;
23101;SDS011;11720;51.214;22.574;2023-06-04T12:19:58;1.08;;;0.70;;
23101;SDS011;11720;51.214;22.574;2023-06-04T12:22:25;1.52;;;0.70;;
23101;SDS011;11720;51.214;22.574;2023-06-04T12:24:55;0.50;;;0.50;;
23101;SDS011;11720;51.214;22.574;2023-06-04T12:27:22;2.20;;;0.60;;
23101;SDS011;11720;51.214;22.574;2023-06-04T12:29:59;1.15;;;0.68;;
23101;SDS011;11720;51.214;22.574;2023-06-04T12:32:26;5.18;;;0.93;;
23101;SDS011;11720;51.214;22.574;2023-06-04T12:34:53;4.18;;;0.77;;
23101;SDS011;11720;51.214;22.574;2023-06-04T12:37:19;0.77;;;0.55;;
23101;SDS011;11720;51.214;22.574;2023-06-04T12:39:50;3.30;;;0.73;;
23101;SDS011;11720;51.214;22.574;2023-06-04T12:42:16;0.82;;;0.65;;
23101;SDS011;11720;51.214;22.574;2023-06-04T12:44:44;0.50;;;0.50;;
23101;SDS011;11720;51.214;22.574;2023-06-04T12:47:10;1.20;;;0.80;;
23101;SDS011;11720;51.214;22.574;2023-06-04T12:49:36;0.60;;;0.60;;
23101;SDS011;11720;51.214;22.574;2023-06-04T12:52:02;0.63;;;0.60;;
23101;SDS011;11720;51.214;22.574;2023-06-04T12:54:29;0.70;;;0.60;;
23101;SDS011;11720;51.214;22.574;2023-06-04T12:56:55;0.77;;;0.60;;
23101;SDS011;11720;51.214;22.574;2023-06-04T12:59:22;0.95;;;0.50;;
23101;SDS011;11720;51.214;22.574;2023-06-04T13:01:48;1.23;;;0.70;;
23101;SDS011;11720;51.214;22.574;2023-06-04T13:04:14;0.90;;;0.80;;
23101;SDS011;11720;51.214;22.574;2023-06-04T13:06:40;0.88;;;0.60;;
23101;SDS011;11720;51.214;22.574;2023-06-04T13:09:06;0.73;;;0.40;;
23101;SDS011;11720;51.214;22.574;2023-06-04T13:11:38;0.70;;;0.50;;
23101;SDS011;11720;51.214;22.574;2023-06-04T13:14:04;1.27;;;0.57;;
23101;SDS011;11720;51.214;22.574;2023-06-04T13:16:30;2.38;;;0.60;;
23101;SDS011;11720;51.214;22.574;2023-06-04T13:18:56;1.35;;;0.60;;
23101;SDS011;11720;51.214;22.574;2023-06-04T13:21:22;1.05;;;0.85;;
23101;SDS011;11720;51.214;22.574;2023-06-04T13:23:47;1.50;;;0.80;;
23101;SDS011;11720;51.214;22.574;2023-06-04T13:26:14;2.80;;;0.90;;
23101;SDS011;11720;51.214;22.574;2023-06-04T13:28:43;1.08;;;0.73;;
23101;SDS011;11720;51.214;22.574;2023-06-04T13:31:09;1.00;;;0.55;;
23101;SDS011;11720;51.214;22.574;2023-06-04T13:33:35;1.48;;;0.80;;
23101;SDS011;11720;51.214;22.574;2023-06-04T13:36:04;0.70;;;0.60;;
23101;SDS011;11720;51.214;22.574;2023-06-04T13:38:34;1.70;;;0.82;;
23101;SDS011;11720;51.214;22.574;2023-06-04T13:41:00;2.67;;;1.00;;
23101;SDS011;11720;51.214;22.574;2023-06-04T13:43:25;1.80;;;0.70;;
23101;SDS011;11720;51.214;22.574;2023-06-04T13:45:51;1.95;;;0.68;;
23101;SDS011;11720;51.214;22.574;2023-06-04T13:48:17;0.93;;;0.63;;
23101;SDS011;11720;51.214;22.574;2023-06-04T13:50:43;0.70;;;0.63;;
23101;SDS011;11720;51.214;22.574;2023-06-04T13:53:09;1.35;;;0.95;;
23101;SDS011;11720;51.214;22.574;2023-06-04T13:55:35;0.98;;;0.60;;
23101;SDS011;11720;51.214;22.574;2023-06-04T13:58:01;0.55;;;0.55;;
23101;SDS011;11720;51.214;22.574;2023-06-04T14:00:27;0.70;;;0.57;;
23101;SDS011;11720;51.214;22.574;2023-06-04T14:02:54;1.02;;;0.77;;
23101;SDS011;11720;51.214;22.574;2023-06-04T14:05:20;2.28;;;0.90;;
23101;SDS011;11720;51.214;22.574;2023-06-04T14:07:47;2.72;;;0.70;;
23101;SDS011;11720;51.214;22.574;2023-06-04T14:10:12;0.32;;;0.30;;
23101;SDS011;11720;51.214;22.574;2023-06-04T14:12:38;0.65;;;0.60;;
23101;SDS011;11720;51.214;22.574;2023-06-04T14:15:06;0.82;;;0.60;;
23101;SDS011;11720;51.214;22.574;2023-06-04T14:17:34;1.33;;;0.70;;
23101;SDS011;11720;51.214;22.574;2023-06-04T14:20:01;0.50;;;0.50;;
23101;SDS011;11720;51.214;22.574;2023-06-04T14:22:32;1.73;;;0.70;;
23101;SDS011;11720;51.214;22.574;2023-06-04T14:25:02;0.40;;;0.40;;
23101;SDS011;11720;51.214;22.574;2023-06-04T14:27:31;1.10;;;0.90;;
23101;SDS011;11720;51.214;22.574;2023-06-04T14:29:58;2.72;;;0.80;;
23101;SDS011;11720;51.214;22.574;2023-06-04T14:32:24;1.90;;;0.85;;
23101;SDS011;11720;51.214;22.574;2023-06-04T14:34:49;0.85;;;0.82;;
23101;SDS011;11720;51.214;22.574;2023-06-04T14:37:15;2.80;;;0.93;;
23101;SDS011;11720;51.214;22.574;2023-06-04T14:39:41;2.40;;;0.70;;
23101;SDS011;11720;51.214;22.574;2023-06-04T14:42:07;3.33;;;0.88;;